ITY615 KBOS-LIRF
Flight info
| Callsign | ITY615 |
|---|---|
| Flight time | N/A |
| Altitude | 39000 |
| Route | LBSTA8 LBSTA DCT ALLEX N503B ALLRY/M084F400 DCT 51N050W 52N040W 53N030W 53N020W DCT LIMRI DCT XETBO/M085F410 DCT TAKAS/N0489F410 DCT ALUTA DCT KORER DCT LEMKA DCT BEBIX/N0491F400 DCT VALKU/N0491F410 DCT TIS DCT MEBAK DCT GIPNO DCT BALSI DCT OBIGO DCT ROBEX DCT LAPRI/N0492F400 DCT MOGBO/N0490F410 DCT ELB L146 ELKAP |
| Aircraft | A359/H-SDE2E3GHIJ3J4J5LM1ORWXY/LB1D1 |
Departure
| Time | N/A |
|---|---|
| Airport | Boston Logan International Airport (KBOS) |
Arrival
| Time | 2026-05-07 05:13 |
|---|---|
| Airport | Rome–Fiumicino Leonardo da Vinci International Airport (LIRF) |
| Time | Latitude | Longitude | Altitude | Speed | Heading |
|---|---|---|---|---|---|
| 2026-05-07 03:39 | 47.17731 | -1.39593 | 39006 ft | 491 kts | 126° |
| 2026-05-07 03:39 | 47.13851 | -1.31328 | 38995 ft | 491 kts | 126° |
| 2026-05-07 03:40 | 47.09966 | -1.23078 | 39002 ft | 491 kts | 126° |
| 2026-05-07 03:40 | 47.06073 | -1.14836 | 39099 ft | 492 kts | 126° |
| 2026-05-07 03:40 | 47.04782 | -1.12107 | 39241 ft | 492 kts | 126° |
| 2026-05-07 03:41 | 47.02832 | -1.07992 | 39485 ft | 491 kts | 126° |
| 2026-05-07 03:41 | 47.00880 | -1.03878 | 39669 ft | 491 kts | 126° |
| 2026-05-07 03:41 | 46.98930 | -0.99774 | 39848 ft | 491 kts | 126° |
| 2026-05-07 03:41 | 46.96973 | -0.95662 | 40004 ft | 492 kts | 126° |
| 2026-05-07 03:42 | 46.95012 | -0.91549 | 40154 ft | 492 kts | 126° |
| 2026-05-07 03:42 | 46.93045 | -0.87427 | 40308 ft | 493 kts | 126° |
| 2026-05-07 03:42 | 46.91080 | -0.83316 | 40459 ft | 493 kts | 126° |
| 2026-05-07 03:42 | 46.89112 | -0.79206 | 40620 ft | 493 kts | 126° |
| 2026-05-07 03:43 | 46.87140 | -0.75093 | 40739 ft | 494 kts | 126° |
| 2026-05-07 03:43 | 46.85194 | -0.71041 | 40891 ft | 494 kts | 126° |
| 2026-05-07 03:43 | 46.83190 | -0.66873 | 40983 ft | 495 kts | 126° |
| 2026-05-07 03:44 | 46.79224 | -0.58645 | 40998 ft | 496 kts | 126° |
| 2026-05-07 03:44 | 46.75275 | -0.50473 | 41006 ft | 496 kts | 126° |
| 2026-05-07 03:45 | 46.71295 | -0.42265 | 41011 ft | 496 kts | 126° |
| 2026-05-07 03:45 | 46.67311 | -0.34070 | 41005 ft | 496 kts | 126° |
| 2026-05-07 03:46 | 46.63342 | -0.25852 | 41009 ft | 496 kts | 123° |
| 2026-05-07 03:46 | 46.59768 | -0.17256 | 41013 ft | 496 kts | 121° |
| 2026-05-07 03:47 | 46.56282 | -0.08589 | 41025 ft | 496 kts | 121° |
| 2026-05-07 03:47 | 46.52808 | 0.00074 | 41015 ft | 496 kts | 121° |
| 2026-05-07 03:48 | 46.49317 | 0.08734 | 41019 ft | 498 kts | 121° |
| 2026-05-07 03:48 | 46.45806 | 0.17398 | 41015 ft | 498 kts | 121° |
| 2026-05-07 03:49 | 46.42285 | 0.26056 | 41014 ft | 498 kts | 121° |
| 2026-05-07 03:49 | 46.38757 | 0.34702 | 41013 ft | 498 kts | 121° |
| 2026-05-07 03:50 | 46.35223 | 0.43338 | 41017 ft | 498 kts | 121° |
| 2026-05-07 03:50 | 46.31679 | 0.51970 | 41019 ft | 498 kts | 121° |
| 2026-05-07 03:51 | 46.28154 | 0.60531 | 41013 ft | 498 kts | 122° |
| 2026-05-07 03:51 | 46.24600 | 0.69135 | 41010 ft | 498 kts | 122° |
| 2026-05-07 03:52 | 46.21040 | 0.77724 | 41010 ft | 498 kts | 122° |
| 2026-05-07 03:52 | 46.17477 | 0.86299 | 41001 ft | 498 kts | 122° |
| 2026-05-07 03:53 | 46.13904 | 0.94868 | 41001 ft | 498 kts | 122° |
| 2026-05-07 03:53 | 46.10331 | 1.03411 | 40999 ft | 498 kts | 122° |
| 2026-05-07 03:54 | 46.06763 | 1.11916 | 40999 ft | 498 kts | 122° |
| 2026-05-07 03:54 | 46.03172 | 1.20449 | 40999 ft | 498 kts | 122° |
| 2026-05-07 03:55 | 45.99576 | 1.28970 | 41000 ft | 498 kts | 122° |
| 2026-05-07 03:55 | 45.96463 | 1.37856 | 41001 ft | 500 kts | 109° |
| 2026-05-07 03:56 | 45.95284 | 1.47679 | 40998 ft | 501 kts | 90° |
| 2026-05-07 03:56 | 45.95512 | 1.57706 | 40996 ft | 502 kts | 87° |
| 2026-05-07 03:57 | 45.95957 | 1.67738 | 40998 ft | 503 kts | 86° |
| 2026-05-07 03:57 | 45.96389 | 1.77759 | 40996 ft | 502 kts | 87° |
| 2026-05-07 03:58 | 45.96777 | 1.87781 | 40996 ft | 502 kts | 87° |
| 2026-05-07 03:58 | 45.97139 | 1.97810 | 40997 ft | 502 kts | 87° |
| 2026-05-07 03:59 | 45.97488 | 2.07773 | 41003 ft | 502 kts | 88° |
| 2026-05-07 03:59 | 45.97831 | 2.17803 | 41007 ft | 502 kts | 88° |
| 2026-05-07 04:00 | 45.98167 | 2.27834 | 41009 ft | 502 kts | 88° |
| 2026-05-07 04:00 | 45.98494 | 2.37867 | 41015 ft | 502 kts | 88° |
| 2026-05-07 04:01 | 45.98813 | 2.47911 | 41019 ft | 503 kts | 88° |
| 2026-05-07 04:01 | 45.99123 | 2.57951 | 41016 ft | 503 kts | 88° |
| 2026-05-07 04:02 | 45.99424 | 2.67999 | 41018 ft | 503 kts | 88° |
| 2026-05-07 04:02 | 45.99690 | 2.78064 | 41012 ft | 503 kts | 91° |
| 2026-05-07 04:03 | 45.98850 | 2.88023 | 41014 ft | 502 kts | 102° |
| 2026-05-07 04:03 | 45.97394 | 2.97835 | 41028 ft | 502 kts | 103° |
| 2026-05-07 04:04 | 45.95828 | 3.07620 | 41017 ft | 503 kts | 104° |
| 2026-05-07 04:04 | 45.94268 | 3.17350 | 41020 ft | 503 kts | 104° |
| 2026-05-07 04:05 | 45.92708 | 3.27144 | 41016 ft | 503 kts | 104° |
| 2026-05-07 04:05 | 45.91147 | 3.36935 | 41020 ft | 503 kts | 104° |
| 2026-05-07 04:06 | 45.89578 | 3.46727 | 41013 ft | 503 kts | 104° |
| 2026-05-07 04:06 | 45.88188 | 3.55350 | 41019 ft | 503 kts | 104° |
| 2026-05-07 04:07 | 45.86797 | 3.64203 | 41017 ft | 503 kts | 103° |
| 2026-05-07 04:07 | 45.85294 | 3.74003 | 41014 ft | 503 kts | 103° |
| 2026-05-07 04:08 | 45.83783 | 3.83787 | 41017 ft | 503 kts | 103° |
| 2026-05-07 04:08 | 45.82255 | 3.93570 | 41017 ft | 502 kts | 103° |
| 2026-05-07 04:09 | 45.80716 | 4.03338 | 41020 ft | 502 kts | 103° |
| 2026-05-07 04:09 | 45.79168 | 4.13099 | 41017 ft | 502 kts | 104° |
| 2026-05-07 04:10 | 45.77612 | 4.22855 | 41014 ft | 502 kts | 104° |
| 2026-05-07 04:10 | 45.76046 | 4.32621 | 41018 ft | 503 kts | 104° |
| 2026-05-07 04:11 | 45.74482 | 4.42314 | 41009 ft | 503 kts | 104° |
| 2026-05-07 04:11 | 45.72899 | 4.52071 | 41005 ft | 503 kts | 104° |
| 2026-05-07 04:12 | 45.71308 | 4.61823 | 41017 ft | 503 kts | 104° |
| 2026-05-07 04:12 | 45.69711 | 4.71572 | 41015 ft | 503 kts | 104° |
| 2026-05-07 04:13 | 45.68100 | 4.81321 | 41015 ft | 503 kts | 104° |
| 2026-05-07 04:13 | 45.66479 | 4.91071 | 41016 ft | 503 kts | 104° |
| 2026-05-07 04:14 | 45.64863 | 5.00737 | 41012 ft | 503 kts | 104° |
| 2026-05-07 04:14 | 45.63230 | 5.10462 | 41004 ft | 503 kts | 104° |
| 2026-05-07 04:15 | 45.61588 | 5.20183 | 40991 ft | 503 kts | 104° |
| 2026-05-07 04:15 | 45.59937 | 5.29902 | 40990 ft | 503 kts | 105° |
| 2026-05-07 04:16 | 45.58278 | 5.39617 | 40989 ft | 503 kts | 105° |
| 2026-05-07 04:16 | 45.56612 | 5.49319 | 40990 ft | 503 kts | 105° |
| 2026-05-07 04:17 | 45.54907 | 5.59001 | 40990 ft | 503 kts | 106° |
| 2026-05-07 04:17 | 45.53061 | 5.68620 | 40990 ft | 502 kts | 107° |
| 2026-05-07 04:18 | 45.51191 | 5.78217 | 40990 ft | 502 kts | 107° |
| 2026-05-07 04:18 | 45.49345 | 5.87757 | 40989 ft | 502 kts | 106° |
| 2026-05-07 04:19 | 45.46793 | 5.96968 | 41000 ft | 499 kts | 122° |
| 2026-05-07 04:19 | 45.42750 | 6.05043 | 41000 ft | 497 kts | 130° |
| 2026-05-07 04:20 | 45.38429 | 6.12648 | 40997 ft | 497 kts | 131° |
| 2026-05-07 04:20 | 45.34034 | 6.20240 | 40989 ft | 497 kts | 131° |
| 2026-05-07 04:21 | 45.27461 | 6.31664 | 40988 ft | 497 kts | 131° |
| 2026-05-07 04:21 | 45.23090 | 6.39279 | 40988 ft | 497 kts | 131° |
| 2026-05-07 04:22 | 45.18715 | 6.46884 | 40989 ft | 497 kts | 131° |
| 2026-05-07 04:22 | 45.14341 | 6.54485 | 40989 ft | 498 kts | 130° |
| 2026-05-07 04:23 | 45.10811 | 6.62856 | 40981 ft | 501 kts | 113° |
| 2026-05-07 04:23 | 45.08403 | 6.72135 | 40980 ft | 503 kts | 110° |
| 2026-05-07 04:24 | 45.06209 | 6.81538 | 40971 ft | 503 kts | 109° |
| 2026-05-07 04:24 | 45.04023 | 6.90937 | 40960 ft | 503 kts | 110° |
| 2026-05-07 04:25 | 45.01796 | 7.00333 | 40963 ft | 503 kts | 110° |
| 2026-05-07 04:25 | 44.99551 | 7.09699 | 40971 ft | 503 kts | 110° |
| 2026-05-07 04:26 | 44.98173 | 7.19386 | 40976 ft | 506 kts | 93° |
| 2026-05-07 04:26 | 44.97984 | 7.29339 | 40969 ft | 507 kts | 95° |
| 2026-05-07 04:27 | 44.96682 | 7.38983 | 40946 ft | 502 kts | 112° |
| 2026-05-07 04:27 | 44.93276 | 7.47469 | 40945 ft | 496 kts | 132° |
| 2026-05-07 04:28 | 44.89347 | 7.53411 | 40942 ft | 495 kts | 137° |
| 2026-05-07 04:28 | 44.84455 | 7.60157 | 40943 ft | 495 kts | 138° |
| 2026-05-07 04:29 | 44.79508 | 7.66904 | 40945 ft | 495 kts | 138° |
| 2026-05-07 04:29 | 44.74589 | 7.73681 | 40954 ft | 495 kts | 137° |
| 2026-05-07 04:30 | 44.69725 | 7.80544 | 40954 ft | 495 kts | 135° |
| 2026-05-07 04:30 | 44.64874 | 7.87417 | 40952 ft | 495 kts | 135° |
| 2026-05-07 04:31 | 44.60012 | 7.94179 | 40949 ft | 495 kts | 136° |
| 2026-05-07 04:31 | 44.55094 | 8.00941 | 40944 ft | 495 kts | 136° |
| 2026-05-07 04:32 | 44.50171 | 8.07682 | 40930 ft | 494 kts | 136° |
| 2026-05-07 04:32 | 44.45250 | 8.14407 | 40917 ft | 494 kts | 136° |
| 2026-05-07 04:33 | 44.40328 | 8.21119 | 40910 ft | 494 kts | 136° |
| 2026-05-07 04:33 | 44.35398 | 8.27825 | 40902 ft | 494 kts | 136° |
| 2026-05-07 04:34 | 44.30471 | 8.34513 | 40897 ft | 494 kts | 136° |
| 2026-05-07 04:34 | 44.25537 | 8.41192 | 40895 ft | 494 kts | 136° |
| 2026-05-07 04:35 | 44.20600 | 8.47859 | 40890 ft | 494 kts | 136° |
| 2026-05-07 04:35 | 44.15653 | 8.54524 | 40906 ft | 494 kts | 137° |
| 2026-05-07 04:36 | 44.10711 | 8.61165 | 40944 ft | 494 kts | 137° |
| 2026-05-07 04:36 | 44.05800 | 8.67749 | 40943 ft | 494 kts | 137° |
| 2026-05-07 04:37 | 44.00853 | 8.74364 | 40941 ft | 494 kts | 137° |
| 2026-05-07 04:37 | 43.95901 | 8.80971 | 40907 ft | 493 kts | 137° |
| 2026-05-07 04:38 | 43.90945 | 8.87566 | 40929 ft | 493 kts | 137° |
| 2026-05-07 04:38 | 43.85986 | 8.94149 | 40962 ft | 493 kts | 137° |
| 2026-05-07 04:39 | 43.81026 | 9.00719 | 40960 ft | 493 kts | 137° |
| 2026-05-07 04:39 | 43.76061 | 9.07278 | 40965 ft | 493 kts | 137° |
| 2026-05-07 04:40 | 43.71091 | 9.13829 | 40972 ft | 493 kts | 137° |
| 2026-05-07 04:40 | 43.66119 | 9.20366 | 40968 ft | 493 kts | 137° |
| 2026-05-07 04:41 | 43.61145 | 9.26890 | 40968 ft | 493 kts | 137° |
| 2026-05-07 04:41 | 43.56205 | 9.33354 | 40973 ft | 493 kts | 137° |
| 2026-05-07 04:42 | 43.51228 | 9.39851 | 40979 ft | 493 kts | 137° |
| 2026-05-07 04:42 | 43.46248 | 9.46337 | 40981 ft | 493 kts | 137° |
| 2026-05-07 04:43 | 43.41266 | 9.52810 | 40982 ft | 492 kts | 137° |
| 2026-05-07 04:43 | 43.36277 | 9.59275 | 40988 ft | 493 kts | 137° |
| 2026-05-07 04:44 | 43.31283 | 9.65733 | 40989 ft | 493 kts | 137° |
| 2026-05-07 04:44 | 43.26292 | 9.72172 | 40989 ft | 493 kts | 138° |
| 2026-05-07 04:45 | 43.21296 | 9.78602 | 40991 ft | 492 kts | 138° |
| 2026-05-07 04:45 | 43.16294 | 9.85023 | 40991 ft | 492 kts | 138° |
| 2026-05-07 04:46 | 43.11286 | 9.91438 | 40989 ft | 493 kts | 138° |
| 2026-05-07 04:46 | 43.08789 | 9.94633 | 40742 ft | 488 kts | 138° |
| 2026-05-07 04:46 | 43.06308 | 9.97805 | 39951 ft | 490 kts | 138° |
| 2026-05-07 04:47 | 43.03808 | 10.00996 | 39077 ft | 493 kts | 138° |
| 2026-05-07 04:47 | 43.01297 | 10.04202 | 38260 ft | 493 kts | 138° |
| 2026-05-07 04:47 | 42.98790 | 10.07400 | 37472 ft | 492 kts | 138° |
| 2026-05-07 04:47 | 42.96296 | 10.10582 | 36684 ft | 490 kts | 138° |
| 2026-05-07 04:48 | 42.93805 | 10.13756 | 35900 ft | 488 kts | 138° |
| 2026-05-07 04:48 | 42.91329 | 10.16904 | 35194 ft | 486 kts | 139° |
| 2026-05-07 04:48 | 42.88859 | 10.20040 | 34488 ft | 484 kts | 139° |
| 2026-05-07 04:48 | 42.86426 | 10.23121 | 33710 ft | 484 kts | 139° |
| 2026-05-07 04:49 | 42.83956 | 10.26242 | 32904 ft | 484 kts | 139° |
| 2026-05-07 04:49 | 42.81482 | 10.29362 | 32072 ft | 485 kts | 139° |
| 2026-05-07 04:49 | 42.79015 | 10.32486 | 31230 ft | 486 kts | 137° |
| 2026-05-07 04:49 | 42.76752 | 10.35918 | 30408 ft | 489 kts | 129° |
| 2026-05-07 04:50 | 42.74941 | 10.39812 | 30086 ft | 482 kts | 118° |
| 2026-05-07 04:50 | 42.73681 | 10.43979 | 29973 ft | 470 kts | 108° |
| 2026-05-07 04:50 | 42.72998 | 10.48269 | 29862 ft | 459 kts | 97° |
| 2026-05-07 04:50 | 42.72726 | 10.52532 | 29714 ft | 446 kts | 94° |
| 2026-05-07 04:51 | 42.72542 | 10.56684 | 29528 ft | 434 kts | 94° |
| 2026-05-07 04:51 | 42.72362 | 10.60737 | 29333 ft | 423 kts | 95° |
| 2026-05-07 04:51 | 42.71819 | 10.64610 | 28861 ft | 414 kts | 111° |
| 2026-05-07 04:51 | 42.70581 | 10.68095 | 28408 ft | 406 kts | 122° |
| 2026-05-07 04:52 | 42.69109 | 10.71352 | 27969 ft | 402 kts | 124° |
| 2026-05-07 04:52 | 42.67623 | 10.74556 | 27536 ft | 399 kts | 124° |
| 2026-05-07 04:52 | 42.66152 | 10.77735 | 27096 ft | 396 kts | 124° |
| 2026-05-07 04:52 | 42.64697 | 10.80888 | 26671 ft | 392 kts | 123° |
| 2026-05-07 04:53 | 42.63256 | 10.84014 | 26260 ft | 389 kts | 123° |
| 2026-05-07 04:53 | 42.61826 | 10.87118 | 25839 ft | 386 kts | 123° |
| 2026-05-07 04:53 | 42.60407 | 10.90200 | 25408 ft | 383 kts | 123° |
| 2026-05-07 04:53 | 42.58999 | 10.93253 | 24984 ft | 380 kts | 123° |
| 2026-05-07 04:54 | 42.57600 | 10.96285 | 24560 ft | 377 kts | 123° |
| 2026-05-07 04:54 | 42.56215 | 10.99286 | 24148 ft | 374 kts | 123° |
| 2026-05-07 04:54 | 42.54836 | 11.02268 | 23734 ft | 371 kts | 123° |
| 2026-05-07 04:54 | 42.53471 | 11.05219 | 23315 ft | 369 kts | 123° |
| 2026-05-07 04:55 | 42.52111 | 11.08157 | 22891 ft | 367 kts | 123° |
| 2026-05-07 04:55 | 42.50777 | 11.11035 | 22498 ft | 364 kts | 123° |
| 2026-05-07 04:55 | 42.49433 | 11.13933 | 22093 ft | 362 kts | 123° |
| 2026-05-07 04:55 | 42.48098 | 11.16808 | 21683 ft | 359 kts | 123° |
| 2026-05-07 04:56 | 42.46770 | 11.19665 | 21290 ft | 357 kts | 123° |
| 2026-05-07 04:56 | 42.45450 | 11.22512 | 20693 ft | 359 kts | 123° |
| 2026-05-07 04:56 | 42.44303 | 11.25571 | 19853 ft | 371 kts | 110° |
| 2026-05-07 04:56 | 42.43724 | 11.29013 | 19140 ft | 377 kts | 99° |
| 2026-05-07 04:57 | 42.43340 | 11.32527 | 18593 ft | 376 kts | 98° |
| 2026-05-07 04:57 | 42.42970 | 11.36011 | 18141 ft | 372 kts | 98° |
| 2026-05-07 04:57 | 42.42599 | 11.39417 | 17913 ft | 360 kts | 98° |
| 2026-05-07 04:57 | 42.42234 | 11.42713 | 17728 ft | 349 kts | 99° |
| 2026-05-07 04:58 | 42.41873 | 11.45927 | 17369 ft | 343 kts | 99° |
| 2026-05-07 04:58 | 42.41513 | 11.49107 | 16921 ft | 341 kts | 99° |
| 2026-05-07 04:58 | 42.41154 | 11.52266 | 16479 ft | 338 kts | 99° |
| 2026-05-07 04:58 | 42.40797 | 11.55400 | 16044 ft | 336 kts | 98° |
| 2026-05-07 04:59 | 42.40441 | 11.58511 | 15585 ft | 332 kts | 98° |
| 2026-05-07 04:59 | 42.40069 | 11.61559 | 14852 ft | 327 kts | 100° |
| 2026-05-07 04:59 | 42.39664 | 11.64572 | 14207 ft | 322 kts | 100° |
| 2026-05-07 04:59 | 42.39263 | 11.67547 | 13772 ft | 321 kts | 99° |
| 2026-05-07 05:00 | 42.38870 | 11.70504 | 13381 ft | 318 kts | 99° |
| 2026-05-07 05:00 | 42.38483 | 11.73431 | 12999 ft | 315 kts | 99° |
| 2026-05-07 05:00 | 42.38098 | 11.76341 | 12623 ft | 313 kts | 99° |
| 2026-05-07 05:00 | 42.37715 | 11.79235 | 12242 ft | 311 kts | 99° |
| 2026-05-07 05:01 | 42.37334 | 11.82117 | 11868 ft | 310 kts | 99° |
| 2026-05-07 05:01 | 42.36959 | 11.84944 | 11500 ft | 308 kts | 99° |
| 2026-05-07 05:01 | 42.36583 | 11.87767 | 11269 ft | 299 kts | 99° |
| 2026-05-07 05:01 | 42.36218 | 11.90478 | 11125 ft | 287 kts | 99° |
| 2026-05-07 05:02 | 42.35568 | 11.92960 | 10874 ft | 276 kts | 123° |
| 2026-05-07 05:02 | 42.34211 | 11.94625 | 10549 ft | 259 kts | 154° |
| 2026-05-07 05:02 | 42.32560 | 11.95460 | 10148 ft | 251 kts | 163° |
| 2026-05-07 05:02 | 42.30885 | 11.96129 | 9787 ft | 250 kts | 163° |
| 2026-05-07 05:03 | 42.29223 | 11.96794 | 9455 ft | 248 kts | 162° |
| 2026-05-07 05:03 | 42.27576 | 11.97470 | 9125 ft | 246 kts | 162° |
| 2026-05-07 05:03 | 42.25943 | 11.98151 | 8768 ft | 245 kts | 161° |
| 2026-05-07 05:03 | 42.24315 | 11.98836 | 8416 ft | 244 kts | 161° |
| 2026-05-07 05:04 | 42.22698 | 11.99520 | 8081 ft | 243 kts | 161° |
| 2026-05-07 05:04 | 42.21092 | 12.00201 | 7738 ft | 241 kts | 161° |
| 2026-05-07 05:04 | 42.19489 | 12.00882 | 7391 ft | 240 kts | 161° |
| 2026-05-07 05:04 | 42.17902 | 12.01558 | 7073 ft | 238 kts | 161° |
| 2026-05-07 05:05 | 42.16329 | 12.02229 | 6768 ft | 236 kts | 161° |
| 2026-05-07 05:05 | 42.14792 | 12.02883 | 6471 ft | 233 kts | 161° |
| 2026-05-07 05:05 | 42.13257 | 12.03539 | 6176 ft | 231 kts | 160° |
| 2026-05-07 05:05 | 42.11805 | 12.04418 | 5890 ft | 228 kts | 143° |
| 2026-05-07 05:06 | 42.10640 | 12.05842 | 5574 ft | 226 kts | 132° |
| 2026-05-07 05:06 | 42.09576 | 12.07406 | 5284 ft | 227 kts | 130° |
| 2026-05-07 05:06 | 42.08521 | 12.08983 | 4989 ft | 226 kts | 130° |
| 2026-05-07 05:06 | 42.07466 | 12.10547 | 4691 ft | 225 kts | 131° |
| 2026-05-07 05:07 | 42.06319 | 12.11972 | 4404 ft | 225 kts | 143° |
| 2026-05-07 05:07 | 42.04933 | 12.12930 | 4138 ft | 224 kts | 158° |
| 2026-05-07 05:07 | 42.03458 | 12.13586 | 4025 ft | 223 kts | 161° |
| 2026-05-07 05:07 | 42.01972 | 12.14199 | 4018 ft | 223 kts | 161° |
| 2026-05-07 05:08 | 42.00531 | 12.14793 | 4019 ft | 208 kts | 161° |
| 2026-05-07 05:08 | 41.99184 | 12.15325 | 4025 ft | 198 kts | 164° |
| 2026-05-07 05:08 | 41.97858 | 12.15816 | 3975 ft | 197 kts | 161° |
| 2026-05-07 05:08 | 41.96557 | 12.16375 | 3613 ft | 202 kts | 160° |
| 2026-05-07 05:09 | 41.95224 | 12.16956 | 3179 ft | 198 kts | 160° |
| 2026-05-07 05:09 | 41.93937 | 12.17500 | 2830 ft | 189 kts | 161° |
| 2026-05-07 05:09 | 41.92704 | 12.18009 | 2468 ft | 182 kts | 161° |
| 2026-05-07 05:09 | 41.91501 | 12.18503 | 2108 ft | 181 kts | 160° |
| 2026-05-07 05:10 | 41.90305 | 12.18990 | 1846 ft | 177 kts | 161° |
| 2026-05-07 05:10 | 41.89160 | 12.19464 | 1619 ft | 166 kts | 160° |
| 2026-05-07 05:10 | 41.88101 | 12.19911 | 1411 ft | 153 kts | 159° |
| 2026-05-07 05:10 | 41.87117 | 12.20323 | 1204 ft | 143 kts | 159° |
| 2026-05-07 05:11 | 41.86197 | 12.20706 | 1023 ft | 135 kts | 159° |
| 2026-05-07 05:11 | 41.85301 | 12.21080 | 841 ft | 134 kts | 159° |
| 2026-05-07 05:11 | 41.84409 | 12.21453 | 664 ft | 134 kts | 159° |
| 2026-05-07 05:11 | 41.83518 | 12.21824 | 479 ft | 134 kts | 159° |
| 2026-05-07 05:12 | 41.82629 | 12.22196 | 311 ft | 134 kts | 160° |
| 2026-05-07 05:12 | 41.81741 | 12.22576 | 115 ft | 134 kts | 160° |
| 2026-05-07 05:12 | 41.80872 | 12.22944 | 35 ft | 130 kts | 163° |
| 2026-05-07 05:12 | 41.80078 | 12.23257 | 24 ft | 88 kts | 164° |
| 2026-05-07 05:13 | 41.79793 | 12.23379 | 24 ft | 29 kts | 162° |
| 2026-05-07 05:13 | 41.79601 | 12.23461 | 22 ft | 30 kts | 155° |
| 2026-05-07 05:13 | 41.79436 | 12.23606 | 24 ft | 26 kts | 137° |
| 2026-05-07 05:13 | 41.79336 | 12.23780 | 25 ft | 21 kts | 117° |
| 2026-05-07 05:14 | 41.79330 | 12.23945 | 22 ft | 18 kts | 73° |
| 2026-05-07 05:14 | 41.79407 | 12.23998 | 20 ft | 14 kts | 349° |
| 2026-05-07 05:14 | 41.79512 | 12.23958 | 20 ft | 17 kts | 342° |
| 2026-05-07 05:14 | 41.79622 | 12.23905 | 21 ft | 14 kts | 339° |
| 2026-05-07 05:15 | 41.79684 | 12.23912 | 23 ft | 14 kts | 30° |
| 2026-05-07 05:15 | 41.79741 | 12.24030 | 24 ft | 17 kts | 67° |
| 2026-05-07 05:15 | 41.79785 | 12.24183 | 24 ft | 19 kts | 70° |
| 2026-05-07 05:15 | 41.79827 | 12.24337 | 24 ft | 16 kts | 66° |
| 2026-05-07 05:16 | 41.79897 | 12.24445 | 23 ft | 14 kts | 56° |
| 2026-05-07 05:16 | 41.79926 | 12.24529 | 20 ft | 9 kts | 69° |
| 2026-05-07 05:16 | 41.79927 | 12.24603 | 25 ft | 8 kts | 131° |
| 2026-05-07 05:16 | 41.79884 | 12.24635 | 23 ft | 6 kts | 157° |
| 2026-05-07 05:17 | 41.79859 | 12.24648 | 20 ft | 3 kts | 159° |
| 2026-05-07 05:17 | 41.79849 | 12.24653 | 20 ft | 0 kts | 159° |